createdAt,value
2022-08-04T00:02:16.229Z,25.49
2022-08-04T00:05:07.214Z,25.40
2022-08-04T00:08:12.249Z,25.34
2022-08-04T00:10:44.700Z,25.38
2022-08-04T00:13:12.428Z,25.36
2022-08-04T00:15:40.330Z,25.37
2022-08-04T00:18:17.749Z,25.38
2022-08-04T00:20:45.917Z,25.38
2022-08-04T00:23:14.526Z,25.41
2022-08-04T00:25:42.153Z,25.46
2022-08-04T00:28:09.741Z,25.45
2022-08-04T00:30:37.431Z,25.48
2022-08-04T00:33:04.920Z,25.47
2022-08-04T00:35:33.320Z,25.47
2022-08-04T00:38:01.669Z,25.46
2022-08-04T00:40:40.660Z,25.39
2022-08-04T00:43:28.583Z,25.34
2022-08-04T00:46:36.695Z,25.25
2022-08-04T00:49:42.877Z,25.20
2022-08-04T00:52:46.954Z,25.15
2022-08-04T00:55:35.746Z,25.11
2022-08-04T00:58:27.062Z,25.10
2022-08-04T01:01:20.497Z,25.08
2022-08-04T01:04:27.468Z,25.08
2022-08-04T01:07:49.904Z,25.06
2022-08-04T01:10:41.003Z,25.06
2022-08-04T01:13:48.461Z,25.06
2022-08-04T01:16:18.387Z,25.05
2022-08-04T01:19:01.042Z,25.08
2022-08-04T01:21:47.189Z,25.06
2022-08-04T01:24:48.039Z,25.04
2022-08-04T01:27:59.954Z,25.07
2022-08-04T01:30:28.783Z,25.08
2022-08-04T01:33:09.873Z,25.07
2022-08-04T01:35:56.407Z,25.07
2022-08-04T01:38:30.527Z,25.05
2022-08-04T01:41:06.896Z,25.05
2022-08-04T01:43:41.222Z,25.01
2022-08-04T01:46:17.367Z,24.99
2022-08-04T01:48:47.888Z,25.00
2022-08-04T01:51:15.458Z,25.00
2022-08-04T01:53:44.827Z,24.93
2022-08-04T01:56:13.437Z,24.87
2022-08-04T01:58:41.705Z,24.85
2022-08-04T02:01:12.916Z,24.83
2022-08-04T02:04:20.715Z,24.79
2022-08-04T02:07:45.097Z,24.73
2022-08-04T02:10:28.239Z,24.70
2022-08-04T02:13:26.044Z,24.63
2022-08-04T02:16:17.206Z,24.61
2022-08-04T02:19:31.761Z,24.55
2022-08-04T02:22:16.460Z,24.51
2022-08-04T02:24:50.147Z,24.42
2022-08-04T02:27:29.670Z,24.36
2022-08-04T02:30:19.661Z,24.26
2022-08-04T02:32:49.344Z,24.23
2022-08-04T02:35:27.793Z,24.17
2022-08-04T02:38:38.613Z,24.16
2022-08-04T02:41:09.334Z,24.14
2022-08-04T02:43:50.764Z,24.11
2022-08-04T02:46:22.269Z,24.14
2022-08-04T02:48:56.035Z,24.14
2022-08-04T02:51:45.417Z,24.13
2022-08-04T02:54:31.554Z,24.14
2022-08-04T02:57:02.684Z,24.17
2022-08-04T03:00:00.593Z,24.18
2022-08-04T03:03:03.378Z,24.14
2022-08-04T03:06:27.861Z,24.10
2022-08-04T03:09:49.498Z,24.13
2022-08-04T03:13:08.929Z,24.16
2022-08-04T03:15:51.112Z,24.15
2022-08-04T03:19:20.081Z,24.16
2022-08-04T03:22:53.935Z,24.16
2022-08-04T03:26:03.322Z,24.11
2022-08-04T03:29:35.926Z,24.13
2022-08-04T03:32:45.189Z,24.07
2022-08-04T03:35:42.525Z,24.09
2022-08-04T03:38:27.742Z,24.10
2022-08-04T03:42:03.614Z,24.07
2022-08-04T03:44:56.016Z,24.05
2022-08-04T03:47:54.421Z,24.04
2022-08-04T03:50:47.101Z,24.06
2022-08-04T03:54:01.382Z,24.05
2022-08-04T03:56:40.106Z,24.01
2022-08-04T03:59:55.601Z,24.01
2022-08-04T04:03:04.324Z,23.98
2022-08-04T04:06:05.500Z,23.96
2022-08-04T04:09:20.524Z,23.94
2022-08-04T04:12:45.690Z,23.93
2022-08-04T04:15:37.141Z,23.96
2022-08-04T04:18:13.347Z,24.01
2022-08-04T04:21:14.535Z,24.08
2022-08-04T04:24:07.392Z,24.07
2022-08-04T04:27:11.227Z,24.08
2022-08-04T04:30:05.950Z,24.08
2022-08-04T04:32:59.782Z,24.16
2022-08-04T04:36:02.468Z,24.18
2022-08-04T04:38:44.189Z,24.15
2022-08-04T04:42:12.765Z,24.09
2022-08-04T04:45:19.949Z,24.07
2022-08-04T04:48:10.891Z,24.08
2022-08-04T04:51:09.884Z,24.08
2022-08-04T04:54:35.052Z,24.12
2022-08-04T04:57:22.718Z,24.15
2022-08-04T05:00:13.785Z,24.20
2022-08-04T05:03:19.152Z,24.14
2022-08-04T05:06:15.234Z,24.18
2022-08-04T05:09:44.142Z,24.29
2022-08-04T05:14:35.656Z,24.26
2022-08-04T05:16:33.070Z,24.34
2022-08-04T05:19:45.397Z,24.34
2022-08-04T05:22:31.694Z,24.36
2022-08-04T05:25:35.371Z,24.37
2022-08-04T05:28:17.675Z,24.42
2022-08-04T05:31:01.889Z,24.51
2022-08-04T05:33:48.609Z,24.62
2022-08-04T05:36:40.187Z,24.65
2022-08-04T05:39:19.694Z,24.69
2022-08-04T05:41:55.762Z,24.78
2022-08-04T05:44:28.468Z,24.86
2022-08-04T05:46:58.768Z,24.92
2022-08-04T05:49:29.679Z,25.01
2022-08-04T05:52:03.202Z,25.05
2022-08-04T05:54:35.929Z,25.13
2022-08-04T05:57:07.576Z,25.14
2022-08-04T05:59:42.245Z,25.22
2022-08-04T06:02:10.801Z,25.33
2022-08-04T06:04:41.517Z,25.38
2022-08-04T06:07:11.243Z,25.42
2022-08-04T06:09:38.880Z,25.49
2022-08-04T06:12:26.308Z,25.56
2022-08-04T06:14:59.624Z,25.65
2022-08-04T06:19:56.569Z,25.77
2022-08-04T06:20:36.338Z,26.00
2022-08-04T06:23:12.015Z,26.13
2022-08-04T06:25:50.215Z,26.16
2022-08-04T06:28:19.784Z,26.13
2022-08-04T06:30:49.993Z,26.15
2022-08-04T06:33:27.119Z,26.22
2022-08-04T06:35:56.269Z,26.30
2022-08-04T06:38:25.684Z,26.39
2022-08-04T06:40:57.875Z,26.41
2022-08-04T06:43:29.619Z,26.48
2022-08-04T06:46:02.264Z,26.57
2022-08-04T06:48:33.170Z,26.67
2022-08-04T06:51:26.317Z,26.77
2022-08-04T06:53:50.203Z,26.90
2022-08-04T06:56:19.875Z,26.99
2022-08-04T06:58:48.541Z,27.02
2022-08-04T07:01:20.185Z,27.16
2022-08-04T07:03:50.703Z,27.37
2022-08-04T07:06:19.065Z,27.56
2022-08-04T07:08:46.630Z,27.72
2022-08-04T07:11:14.513Z,27.86
2022-08-04T07:13:45.511Z,27.81
2022-08-04T07:16:15.715Z,27.82
2022-08-04T07:18:44.031Z,27.78
2022-08-04T07:21:20.123Z,27.79
2022-08-04T07:23:51.353Z,27.88
2022-08-04T07:26:19.793Z,27.97
2022-08-04T07:28:47.566Z,28.01
2022-08-04T07:31:33.921Z,28.23
2022-08-04T07:34:21.083Z,28.30
2022-08-04T07:36:55.714Z,28.36
2022-08-04T07:39:31.411Z,28.44
2022-08-04T07:42:04.250Z,28.21
2022-08-04T07:44:35.394Z,28.25
2022-08-04T07:47:06.845Z,28.28
2022-08-04T07:49:54.476Z,28.27
2022-08-04T07:52:25.900Z,28.35
2022-08-04T07:54:54.000Z,28.49
2022-08-04T07:57:40.448Z,28.63
2022-08-04T08:00:14.245Z,28.63
2022-08-04T08:02:43.695Z,28.49
2022-08-04T08:05:19.110Z,28.41
2022-08-04T08:07:54.408Z,28.61
2022-08-04T08:10:24.332Z,28.75
2022-08-04T08:12:54.479Z,28.74
2022-08-04T08:15:22.724Z,28.70
2022-08-04T08:17:58.559Z,28.77
2022-08-04T08:20:31.874Z,28.78
2022-08-04T08:23:01.898Z,28.94
2022-08-04T08:25:33.038Z,29.05
2022-08-04T08:28:05.013Z,29.11
2022-08-04T08:30:34.701Z,29.15
2022-08-04T08:33:08.259Z,29.25
2022-08-04T08:36:09.934Z,29.37
2022-08-04T08:38:55.151Z,29.47
2022-08-04T08:41:40.687Z,29.55
2022-08-04T08:45:08.553Z,29.56
2022-08-04T08:48:25.949Z,29.74
2022-08-04T08:51:24.964Z,29.72
2022-08-04T08:54:27.520Z,29.73
2022-08-04T08:57:24.203Z,29.88
2022-08-04T09:00:43.008Z,29.96
2022-08-04T09:03:47.302Z,30.02
2022-08-04T09:06:58.286Z,30.08
2022-08-04T09:10:03.482Z,30.10
2022-08-04T09:12:56.542Z,29.83
2022-08-04T09:16:08.990Z,30.15
2022-08-04T09:19:01.742Z,30.26
2022-08-04T09:21:57.823Z,30.46
2022-08-04T09:25:05.222Z,30.30
2022-08-04T09:27:56.021Z,30.64
2022-08-04T09:31:07.372Z,30.61
2022-08-04T09:33:49.164Z,30.30
2022-08-04T09:36:46.852Z,30.43
2022-08-04T09:39:33.663Z,30.67
2022-08-04T09:42:48.260Z,30.97
2022-08-04T09:45:43.143Z,30.95
2022-08-04T09:48:31.587Z,31.20
2022-08-04T09:51:00.144Z,31.29
2022-08-04T09:53:55.686Z,31.11
2022-08-04T09:56:41.904Z,30.82
2022-08-04T09:59:58.586Z,30.76
2022-08-04T10:02:32.727Z,30.57
2022-08-04T10:05:07.578Z,30.80
2022-08-04T10:08:16.215Z,30.98
2022-08-04T10:11:55.579Z,31.07
2022-08-04T10:15:09.841Z,31.28
2022-08-04T10:17:54.952Z,31.35
2022-08-04T10:21:14.891Z,31.59
2022-08-04T10:24:28.652Z,31.58
2022-08-04T10:27:11.253Z,31.94
2022-08-04T10:29:47.876Z,32.03
2022-08-04T10:32:27.221Z,31.73
2022-08-04T10:35:16.252Z,31.49
2022-08-04T10:38:30.005Z,31.83
2022-08-04T10:41:16.725Z,32.02
2022-08-04T10:44:42.256Z,32.22
2022-08-04T10:47:20.175Z,32.17
2022-08-04T10:50:01.838Z,32.54
2022-08-04T10:53:00.164Z,32.57
2022-08-04T10:56:08.018Z,32.29
2022-08-04T10:58:47.908Z,32.37
2022-08-04T11:01:59.518Z,32.55
2022-08-04T11:05:12.666Z,32.67
2022-08-04T11:07:44.863Z,32.61
2022-08-04T11:10:15.811Z,32.63
2022-08-04T11:12:44.479Z,32.53
2022-08-04T11:15:21.966Z,32.36
2022-08-04T11:17:57.668Z,32.70
2022-08-04T11:20:48.261Z,32.57
2022-08-04T11:23:18.361Z,32.39
2022-08-04T11:26:27.957Z,32.56
2022-08-04T11:29:08.045Z,32.82
2022-08-04T11:31:42.101Z,33.24
2022-08-04T11:34:30.816Z,33.46
2022-08-04T11:37:43.538Z,33.49
2022-08-04T11:40:29.460Z,33.16
2022-08-04T11:43:06.842Z,33.20
2022-08-04T11:45:51.630Z,32.84
2022-08-04T11:48:33.673Z,33.33
2022-08-04T11:51:06.804Z,33.14
2022-08-04T11:53:39.197Z,33.32
2022-08-04T11:56:16.767Z,33.52
2022-08-04T11:59:03.018Z,33.73
2022-08-04T12:02:24.272Z,33.49
2022-08-04T12:05:02.267Z,33.49
2022-08-04T12:08:25.253Z,33.32
2022-08-04T12:11:02.694Z,33.80
2022-08-04T12:13:50.559Z,33.70
2022-08-04T12:16:30.301Z,33.45
2022-08-04T12:19:03.274Z,33.33
2022-08-04T12:21:53.058Z,33.72
2022-08-04T12:24:53.285Z,33.37
2022-08-04T12:27:52.452Z,33.58
2022-08-04T12:30:58.370Z,33.36
2022-08-04T12:34:03.434Z,33.08
2022-08-04T12:36:33.548Z,33.35
2022-08-04T12:39:19.899Z,34.29
2022-08-04T12:42:28.817Z,34.15
2022-08-04T12:44:59.237Z,34.45
2022-08-04T12:47:29.533Z,34.28
2022-08-04T12:50:04.594Z,34.77
2022-08-04T12:53:04.498Z,35.07
2022-08-04T12:55:35.540Z,35.09
2022-08-04T12:58:13.884Z,35.09
2022-08-04T13:00:53.130Z,35.24
2022-08-04T13:03:24.005Z,35.00
2022-08-04T13:05:55.754Z,35.06
2022-08-04T13:08:24.179Z,34.93
2022-08-04T13:10:57.723Z,35.16
2022-08-04T13:13:28.138Z,35.52
2022-08-04T13:16:08.440Z,35.49
2022-08-04T13:18:40.226Z,35.30
2022-08-04T13:21:23.188Z,34.60
2022-08-04T13:24:21.147Z,36.16
2022-08-04T13:27:18.993Z,36.98
2022-08-04T13:30:25.378Z,36.80
2022-08-04T13:32:40.517Z,39.41
2022-08-04T13:35:09.320Z,39.13
2022-08-04T13:37:39.505Z,38.85
2022-08-04T13:40:13.081Z,40.32
2022-08-04T13:42:42.527Z,40.74
2022-08-04T13:45:11.575Z,41.15
2022-08-04T13:47:40.964Z,39.66
2022-08-04T13:50:23.683Z,40.79
2022-08-04T13:52:58.265Z,39.46
2022-08-04T13:55:37.016Z,40.00
2022-08-04T13:58:19.864Z,41.55
2022-08-04T14:01:35.762Z,42.60
2022-08-04T14:04:22.496Z,43.07
2022-08-04T14:06:54.775Z,43.01
2022-08-04T14:09:35.364Z,42.95
2022-08-04T14:12:38.216Z,39.87
2022-08-04T14:15:00.486Z,41.14
2022-08-04T14:17:30.474Z,42.63
2022-08-04T14:20:03.816Z,43.96
2022-08-04T14:22:36.860Z,42.93
2022-08-04T14:25:16.615Z,43.34
2022-08-04T14:27:57.662Z,44.16
2022-08-04T14:30:35.222Z,44.39
2022-08-04T14:34:02.474Z,44.09
2022-08-04T14:36:03.886Z,44.34
2022-08-04T14:38:54.209Z,42.85
2022-08-04T14:41:34.345Z,44.34
2022-08-04T14:44:04.017Z,44.50
2022-08-04T14:46:36.645Z,42.17
2022-08-04T14:49:12.562Z,43.28
2022-08-04T14:51:44.721Z,44.39
2022-08-04T14:54:18.482Z,44.54
2022-08-04T14:56:58.841Z,44.95
2022-08-04T14:59:26.514Z,45.94
2022-08-04T15:02:00.207Z,43.92
2022-08-04T15:04:31.502Z,45.79
2022-08-04T15:07:04.717Z,44.36
2022-08-04T15:09:33.852Z,45.72
2022-08-04T15:12:04.291Z,42.33
2022-08-04T15:14:37.028Z,42.56
2022-08-04T15:17:11.925Z,41.73
2022-08-04T15:19:56.903Z,45.04
2022-08-04T15:22:24.577Z,44.18
2022-08-04T15:24:55.193Z,42.78
2022-08-04T15:27:34.784Z,43.38
2022-08-04T15:30:12.817Z,45.65
2022-08-04T15:32:48.737Z,43.26
2022-08-04T15:35:30.889Z,45.28
2022-08-04T15:38:30.891Z,46.96
2022-08-04T15:41:55.043Z,46.66
2022-08-04T15:44:51.976Z,46.78
2022-08-04T15:47:19.329Z,47.52
2022-08-04T15:50:12.562Z,46.07
2022-08-04T15:53:10.533Z,46.62
2022-08-04T15:55:43.907Z,47.33
2022-08-04T15:58:17.758Z,47.41
2022-08-04T16:00:50.727Z,46.84
2022-08-04T16:03:58.919Z,46.53
2022-08-04T16:06:23.706Z,47.17
2022-08-04T16:09:05.383Z,41.99
2022-08-04T16:11:40.369Z,44.22
2022-08-04T16:14:11.572Z,45.08
2022-08-04T16:16:39.493Z,46.17
2022-08-04T16:19:41.514Z,43.33
2022-08-04T16:22:32.266Z,44.42
2022-08-04T16:25:00.994Z,44.82
2022-08-04T16:27:43.393Z,42.38
2022-08-04T16:30:15.419Z,44.29
2022-08-04T16:32:48.693Z,45.05
2022-08-04T16:35:26.267Z,46.32
2022-08-04T16:38:12.913Z,46.16
2022-08-04T16:40:45.586Z,45.41
2022-08-04T16:43:22.532Z,46.00
2022-08-04T16:46:06.314Z,45.28
2022-08-04T16:48:37.143Z,44.71
2022-08-04T16:51:12.968Z,42.03
2022-08-04T16:53:57.964Z,40.84
2022-08-04T16:56:35.308Z,41.35
2022-08-04T16:59:12.418Z,43.51
2022-08-04T17:01:52.446Z,43.94
2022-08-04T17:04:34.659Z,45.43
2022-08-04T17:07:06.619Z,46.19
2022-08-04T17:09:33.953Z,45.99
2022-08-04T17:12:02.169Z,45.63
2022-08-04T17:14:31.530Z,44.76
2022-08-04T17:17:02.091Z,44.34
2022-08-04T17:19:29.520Z,45.00
2022-08-04T17:22:11.007Z,45.11
2022-08-04T17:24:40.793Z,41.65
2022-08-04T17:29:57.992Z,39.73
2022-08-04T17:32:25.737Z,38.53
2022-08-04T17:35:03.545Z,37.81
2022-08-04T17:37:40.211Z,37.80
2022-08-04T17:40:18.281Z,37.50
2022-08-04T17:44:04.064Z,37.12
2022-08-04T17:46:29.648Z,35.56
2022-08-04T17:49:21.067Z,35.67
2022-08-04T17:52:06.418Z,35.72
2022-08-04T17:54:40.878Z,35.87
2022-08-04T17:57:23.067Z,35.54
2022-08-04T18:00:00.244Z,35.33
2022-08-04T18:02:34.860Z,35.39
2022-08-04T18:05:12.374Z,35.36
2022-08-04T18:08:45.774Z,35.20
2022-08-04T18:13:42.843Z,34.97
2022-08-04T18:16:22.759Z,34.78
2022-08-04T18:19:11.757Z,34.61
2022-08-04T18:21:46.548Z,34.46
2022-08-04T18:24:35.950Z,34.22
2022-08-04T18:27:23.347Z,33.97
2022-08-04T18:30:33.717Z,33.67
2022-08-04T18:33:04.183Z,33.30
2022-08-04T18:36:31.718Z,33.11
2022-08-04T18:38:22.366Z,32.91
2022-08-04T18:40:53.049Z,32.71
2022-08-04T18:43:28.285Z,32.58
2022-08-04T18:46:00.362Z,32.37
2022-08-04T18:48:35.912Z,32.22
2022-08-04T18:51:10.143Z,32.00
2022-08-04T18:53:55.325Z,31.83
2022-08-04T18:56:31.557Z,31.72
2022-08-04T18:59:10.193Z,31.55
2022-08-04T19:02:17.305Z,31.31
2022-08-04T19:04:33.953Z,31.21
2022-08-04T19:08:01.527Z,31.08
2022-08-04T19:09:57.443Z,31.02
2022-08-04T19:12:28.648Z,30.97
2022-08-04T19:14:59.111Z,30.82
2022-08-04T19:17:56.844Z,30.71
2022-08-04T19:20:25.903Z,30.62
2022-08-04T19:24:28.951Z,30.58
2022-08-04T19:26:01.242Z,30.63
2022-08-04T19:28:36.243Z,30.62
2022-08-04T19:31:10.016Z,30.58
2022-08-04T19:33:59.172Z,30.61
2022-08-04T19:36:29.493Z,30.54
2022-08-04T19:39:01.632Z,30.42
2022-08-04T19:42:04.741Z,30.24
2022-08-04T19:44:23.595Z,30.00
2022-08-04T19:46:51.496Z,29.88
2022-08-04T19:50:03.044Z,29.81
2022-08-04T19:52:07.858Z,29.74
2022-08-04T19:54:35.258Z,29.66
2022-08-04T19:57:08.153Z,29.65
2022-08-04T19:59:36.265Z,29.67
2022-08-04T20:02:15.745Z,29.55
2022-08-04T20:04:43.003Z,29.47
2022-08-04T20:07:14.344Z,29.48
2022-08-04T20:09:41.962Z,29.58
2022-08-04T20:12:21.490Z,29.61
2022-08-04T20:14:49.185Z,29.65
2022-08-04T20:17:17.922Z,29.59
2022-08-04T20:19:51.010Z,29.49
2022-08-04T20:22:53.257Z,29.37
2022-08-04T20:25:36.087Z,29.12
2022-08-04T20:27:59.760Z,29.05
2022-08-04T20:30:30.032Z,29.01
2022-08-04T20:32:59.969Z,29.04
2022-08-04T20:35:29.337Z,29.05
2022-08-04T20:38:00.364Z,29.00
2022-08-04T20:40:30.457Z,28.93
2022-08-04T20:42:59.881Z,28.87
2022-08-04T20:45:55.766Z,28.81
2022-08-04T20:48:14.839Z,28.78
2022-08-04T20:50:47.941Z,28.74
2022-08-04T20:53:16.412Z,28.74
2022-08-04T20:55:55.027Z,28.67
2022-08-04T20:58:27.338Z,28.61
2022-08-04T21:00:56.042Z,28.48
2022-08-04T21:03:38.733Z,28.43
2022-08-04T21:06:11.933Z,28.40
2022-08-04T21:08:39.242Z,28.35
2022-08-04T21:11:09.098Z,28.32
2022-08-04T21:13:50.654Z,28.33
2022-08-04T21:16:54.012Z,28.33
2022-08-04T21:19:13.031Z,28.41
2022-08-04T21:21:42.285Z,28.63
2022-08-04T21:24:10.656Z,28.67
2022-08-04T21:26:42.937Z,28.51
2022-08-04T21:29:13.662Z,28.26
2022-08-04T21:31:51.007Z,28.18
2022-08-04T21:34:31.522Z,28.10
2022-08-04T21:37:09.404Z,28.06
2022-08-04T21:39:50.266Z,28.02
2022-08-04T21:42:28.411Z,27.98
2022-08-04T21:44:58.465Z,27.99
2022-08-04T21:47:25.870Z,28.00
2022-08-04T21:50:12.951Z,28.06
2022-08-04T21:52:49.129Z,28.10
2022-08-04T21:55:17.390Z,28.11
2022-08-04T21:57:46.648Z,28.10
2022-08-04T22:00:19.280Z,28.03
2022-08-04T22:02:52.930Z,27.91
2022-08-04T22:05:22.863Z,27.81
2022-08-04T22:07:52.031Z,27.72
2022-08-04T22:10:32.090Z,27.69
2022-08-04T22:13:07.047Z,27.70
2022-08-04T22:16:05.280Z,27.70
2022-08-04T22:18:24.689Z,27.70
2022-08-04T22:20:55.026Z,27.65
2022-08-04T22:23:25.141Z,27.61
2022-08-04T22:25:55.875Z,27.58
2022-08-04T22:28:28.145Z,27.57
2022-08-04T22:30:57.427Z,27.50
2022-08-04T22:33:53.901Z,27.50
2022-08-04T22:36:16.330Z,27.45
2022-08-04T22:38:51.127Z,27.46
2022-08-04T22:41:22.068Z,27.44
2022-08-04T22:44:01.358Z,27.37
2022-08-04T22:46:30.372Z,27.32
2022-08-04T22:48:58.165Z,27.30
2022-08-04T22:51:26.946Z,27.30
2022-08-04T22:53:54.541Z,27.23
2022-08-04T22:56:38.282Z,27.28
2022-08-04T22:59:10.116Z,27.29
2022-08-04T23:01:59.014Z,27.27
2022-08-04T23:04:32.769Z,27.32
2022-08-04T23:07:05.286Z,27.20
2022-08-04T23:09:50.449Z,27.09
2022-08-04T23:12:25.494Z,27.05
2022-08-04T23:14:58.284Z,27.09
2022-08-04T23:17:28.408Z,27.10
2022-08-04T23:20:00.076Z,27.04
2022-08-04T23:22:41.385Z,27.00
2022-08-04T23:25:15.890Z,26.91
2022-08-04T23:27:51.510Z,26.84
2022-08-04T23:30:24.662Z,26.82
2022-08-04T23:32:57.064Z,26.80
2022-08-04T23:35:24.490Z,26.81
2022-08-04T23:37:57.361Z,26.80
2022-08-04T23:40:30.039Z,26.82
2022-08-04T23:43:12.135Z,26.76
2022-08-04T23:46:07.348Z,26.67
2022-08-04T23:48:40.208Z,26.63
2022-08-04T23:51:15.432Z,26.61
2022-08-04T23:54:01.595Z,26.64
2022-08-04T23:56:34.593Z,26.63
2022-08-04T23:59:04.106Z,26.49
